createdAt,value
2022-08-31T00:00:09.930Z,4.90
2022-08-31T00:02:55.649Z,5.10
2022-08-31T00:05:23.110Z,5.13
2022-08-31T00:07:50.533Z,5.10
2022-08-31T00:10:18.880Z,5.53
2022-08-31T00:12:48.880Z,5.03
2022-08-31T00:15:19.437Z,5.40
2022-08-31T00:17:49.923Z,5.63
2022-08-31T00:20:32.284Z,5.00
2022-08-31T00:23:01.587Z,5.30
2022-08-31T00:25:28.250Z,5.60
2022-08-31T00:27:55.762Z,5.57
2022-08-31T00:30:23.269Z,5.47
2022-08-31T00:32:50.059Z,5.17
2022-08-31T00:35:16.833Z,4.67
2022-08-31T00:37:43.910Z,5.67
2022-08-31T00:40:11.030Z,5.20
2022-08-31T00:42:37.751Z,5.47
2022-08-31T00:45:05.650Z,6.63
2022-08-31T00:47:32.395Z,5.70
2022-08-31T00:49:59.911Z,5.03
2022-08-31T00:52:37.759Z,5.30
2022-08-31T00:55:30.957Z,5.10
2022-08-31T00:58:01.355Z,5.20
2022-08-31T01:00:29.090Z,4.70
2022-08-31T01:02:57.222Z,4.97
2022-08-31T01:05:24.769Z,5.10
2022-08-31T01:07:53.021Z,5.00
2022-08-31T01:10:22.058Z,5.40
2022-08-31T01:12:52.597Z,5.43
2022-08-31T01:15:20.043Z,4.97
2022-08-31T01:17:49.336Z,5.30
2022-08-31T01:20:34.590Z,5.30
2022-08-31T01:23:09.569Z,5.07
2022-08-31T01:25:38.459Z,4.90
2022-08-31T01:28:07.432Z,4.90
2022-08-31T01:30:34.599Z,5.57
2022-08-31T01:33:01.366Z,5.20
2022-08-31T01:35:29.514Z,5.77
2022-08-31T01:37:57.547Z,5.20
2022-08-31T01:40:53.017Z,5.63
2022-08-31T01:43:20.398Z,4.93
2022-08-31T01:45:47.129Z,5.30
2022-08-31T01:48:14.085Z,5.10
2022-08-31T01:50:40.781Z,5.87
2022-08-31T01:53:08.062Z,5.50
2022-08-31T01:55:34.748Z,5.23
2022-08-31T01:58:01.611Z,5.00
2022-08-31T02:00:29.470Z,5.27
2022-08-31T02:02:59.353Z,5.47
2022-08-31T02:05:26.262Z,5.73
2022-08-31T02:07:52.955Z,5.70
2022-08-31T02:10:19.695Z,5.00
2022-08-31T02:12:47.044Z,5.13
2022-08-31T02:15:13.781Z,5.60
2022-08-31T02:17:40.535Z,5.40
2022-08-31T02:20:10.570Z,5.17
2022-08-31T02:22:37.284Z,5.20
2022-08-31T02:25:05.491Z,5.40
2022-08-31T02:27:36.879Z,5.30
2022-08-31T02:30:07.424Z,5.40
2022-08-31T02:32:34.143Z,5.60
2022-08-31T02:35:01.051Z,4.93
2022-08-31T02:37:27.787Z,5.50
2022-08-31T02:39:55.945Z,6.10
2022-08-31T02:42:22.829Z,5.33
2022-08-31T02:44:50.163Z,5.40
2022-08-31T02:47:17.211Z,5.27
2022-08-31T02:49:43.878Z,5.20
2022-08-31T02:52:10.546Z,5.13
2022-08-31T02:54:37.235Z,4.90
2022-08-31T02:57:04.015Z,5.60
2022-08-31T02:59:30.709Z,5.50
2022-08-31T03:01:57.593Z,6.10
2022-08-31T03:04:24.469Z,5.60
2022-08-31T03:06:51.197Z,5.50
2022-08-31T03:09:17.888Z,6.07
2022-08-31T03:11:44.608Z,5.10
2022-08-31T03:14:11.438Z,5.40
2022-08-31T03:16:41.494Z,5.17
2022-08-31T03:19:09.365Z,6.10
2022-08-31T03:21:36.070Z,5.60
2022-08-31T03:24:02.762Z,5.90
2022-08-31T03:26:29.449Z,5.70
2022-08-31T03:28:56.163Z,5.87
2022-08-31T03:31:24.726Z,5.70
2022-08-31T03:33:51.517Z,5.40
2022-08-31T03:36:18.230Z,6.00
2022-08-31T03:38:44.908Z,5.50
2022-08-31T03:41:14.071Z,6.07
2022-08-31T03:43:41.357Z,5.50
2022-08-31T03:46:11.914Z,6.50
2022-08-31T03:48:39.275Z,6.03
2022-08-31T03:51:07.112Z,5.60
2022-08-31T03:53:35.190Z,6.03
2022-08-31T03:56:03.793Z,5.77
2022-08-31T03:58:31.695Z,6.03
2022-08-31T04:00:58.466Z,5.63
2022-08-31T04:03:25.123Z,5.50
2022-08-31T04:05:52.294Z,6.03
2022-08-31T04:08:20.559Z,6.13
2022-08-31T04:10:50.381Z,5.90
2022-08-31T04:13:17.286Z,6.10
2022-08-31T04:15:44.154Z,6.10
2022-08-31T04:18:10.833Z,6.20
2022-08-31T04:20:39.812Z,5.87
2022-08-31T04:23:07.041Z,5.67
2022-08-31T04:25:38.834Z,5.77
2022-08-31T04:28:06.274Z,6.13
2022-08-31T04:30:32.981Z,5.47
2022-08-31T04:33:02.089Z,5.67
2022-08-31T04:35:28.845Z,5.80
2022-08-31T04:37:55.481Z,5.97
2022-08-31T04:40:25.609Z,5.90
2022-08-31T04:42:53.222Z,5.67
2022-08-31T04:45:19.922Z,6.13
2022-08-31T04:47:46.620Z,6.50
2022-08-31T04:50:14.036Z,5.97
2022-08-31T04:52:42.164Z,5.87
2022-08-31T04:55:11.515Z,6.03
2022-08-31T04:57:38.695Z,5.83
2022-08-31T05:00:05.895Z,6.30
2022-08-31T05:02:36.410Z,5.80
2022-08-31T05:05:04.564Z,6.60
2022-08-31T05:07:31.228Z,5.70
2022-08-31T05:09:57.904Z,6.50
2022-08-31T05:12:24.568Z,5.60
2022-08-31T05:14:51.335Z,5.63
2022-08-31T05:17:18.015Z,5.80
2022-08-31T05:19:44.867Z,6.50
2022-08-31T05:22:11.653Z,6.03
2022-08-31T05:24:38.917Z,5.23
2022-08-31T05:27:06.446Z,7.73
2022-08-31T05:29:33.398Z,5.70
2022-08-31T05:32:00.090Z,5.20
2022-08-31T05:34:26.989Z,5.10
2022-08-31T05:36:55.887Z,6.13
2022-08-31T05:39:23.940Z,5.77
2022-08-31T05:41:50.727Z,5.80
2022-08-31T05:44:18.036Z,5.73
2022-08-31T05:46:45.010Z,5.73
2022-08-31T05:49:19.475Z,5.43
2022-08-31T05:51:46.170Z,5.60
2022-08-31T05:54:14.686Z,6.73
2022-08-31T05:56:41.841Z,6.13
2022-08-31T05:59:10.019Z,5.87
2022-08-31T06:01:39.399Z,6.83
2022-08-31T06:04:07.595Z,5.70
2022-08-31T06:06:35.391Z,6.00
2022-08-31T06:09:02.083Z,5.80
2022-08-31T06:11:30.494Z,5.67
2022-08-31T06:13:59.113Z,5.87
2022-08-31T06:16:26.910Z,5.90
2022-08-31T06:18:55.572Z,5.53
2022-08-31T06:21:28.231Z,6.00
2022-08-31T06:23:58.007Z,5.97
2022-08-31T06:26:27.357Z,5.90
2022-08-31T06:28:56.842Z,5.57
2022-08-31T06:31:47.183Z,6.20
2022-08-31T06:34:17.049Z,6.30
2022-08-31T06:36:43.827Z,6.10
2022-08-31T06:39:12.447Z,7.00
2022-08-31T06:41:40.743Z,6.43
2022-08-31T06:44:11.107Z,6.23
2022-08-31T06:46:39.357Z,6.53
2022-08-31T06:49:08.633Z,6.10
2022-08-31T06:51:37.942Z,6.87
2022-08-31T06:54:21.733Z,6.40
2022-08-31T06:56:54.009Z,6.00
2022-08-31T06:59:22.559Z,6.20
2022-08-31T07:01:51.043Z,6.20
2022-08-31T07:04:17.799Z,6.50
2022-08-31T07:06:45.164Z,6.67
2022-08-31T07:09:17.503Z,6.47
2022-08-31T07:11:50.133Z,7.00
2022-08-31T07:14:21.879Z,6.33
2022-08-31T07:16:49.147Z,6.67
2022-08-31T07:19:16.282Z,7.60
2022-08-31T07:21:46.221Z,6.87
2022-08-31T07:24:14.858Z,7.43
2022-08-31T07:26:47.725Z,7.10
2022-08-31T07:29:17.196Z,7.67
2022-08-31T07:31:47.206Z,6.87
2022-08-31T07:34:16.314Z,9.17
2022-08-31T07:37:02.368Z,7.73
2022-08-31T07:39:48.923Z,7.20
2022-08-31T07:42:21.510Z,7.00
2022-08-31T07:44:54.128Z,7.60
2022-08-31T07:47:22.769Z,7.33
2022-08-31T07:49:52.771Z,7.90
2022-08-31T07:52:29.659Z,7.03
2022-08-31T07:55:07.717Z,7.23
2022-08-31T07:57:44.245Z,7.23
2022-08-31T08:00:20.785Z,6.90
2022-08-31T08:02:50.882Z,7.40
2022-08-31T08:05:27.583Z,7.67
2022-08-31T08:07:57.584Z,7.60
2022-08-31T08:10:25.334Z,7.03
2022-08-31T08:12:57.132Z,7.70
2022-08-31T08:15:25.119Z,7.00
2022-08-31T08:17:51.994Z,7.43
2022-08-31T08:20:34.173Z,7.47
2022-08-31T08:23:14.561Z,7.20
2022-08-31T08:25:43.207Z,7.70
2022-08-31T08:28:35.847Z,7.67
2022-08-31T08:31:05.492Z,8.20
2022-08-31T08:33:34.046Z,7.43
2022-08-31T08:36:03.166Z,7.80
2022-08-31T08:38:30.948Z,7.57
2022-08-31T08:41:06.207Z,7.80
2022-08-31T08:43:36.538Z,7.63
2022-08-31T08:46:25.270Z,6.67
2022-08-31T08:48:55.507Z,7.00
2022-08-31T08:51:26.322Z,7.37
2022-08-31T08:53:59.901Z,6.97
2022-08-31T08:56:33.820Z,7.27
2022-08-31T08:59:01.246Z,6.67
2022-08-31T09:01:29.617Z,6.57
2022-08-31T09:03:56.308Z,6.80
2022-08-31T09:06:54.715Z,7.10
2022-08-31T09:09:56.468Z,6.80
2022-08-31T09:12:50.594Z,6.87
2022-08-31T09:15:38.300Z,7.17
2022-08-31T09:18:20.882Z,7.00
2022-08-31T09:21:10.435Z,6.70
2022-08-31T09:23:49.140Z,6.70
2022-08-31T09:26:18.742Z,6.90
2022-08-31T09:28:48.383Z,6.03
2022-08-31T09:31:42.416Z,6.90
2022-08-31T09:34:26.157Z,7.33
2022-08-31T09:36:55.152Z,6.60
2022-08-31T09:39:36.951Z,6.53
2022-08-31T09:42:31.084Z,7.17
2022-08-31T09:45:04.401Z,7.10
2022-08-31T09:47:52.813Z,7.30
2022-08-31T09:50:33.252Z,7.07
2022-08-31T09:53:31.182Z,6.87
2022-08-31T09:56:15.587Z,6.70
2022-08-31T09:58:53.034Z,6.27
2022-08-31T10:01:19.743Z,7.30
2022-08-31T10:03:48.233Z,6.67
2022-08-31T10:06:46.725Z,7.40
2022-08-31T10:09:47.121Z,6.87
2022-08-31T10:12:38.963Z,7.67
2022-08-31T10:15:21.404Z,7.67
2022-08-31T10:18:02.537Z,7.17
2022-08-31T10:20:39.632Z,8.00
2022-08-31T10:23:33.224Z,7.70
2022-08-31T10:26:11.206Z,7.80
2022-08-31T10:28:50.870Z,7.50
2022-08-31T10:31:42.508Z,8.53
2022-08-31T10:34:42.953Z,8.40
2022-08-31T10:37:20.570Z,8.10
2022-08-31T10:39:52.088Z,8.93
2022-08-31T10:42:38.306Z,7.93
2022-08-31T10:45:17.744Z,8.70
2022-08-31T10:47:49.073Z,8.87
2022-08-31T10:50:25.123Z,8.60
2022-08-31T10:53:05.823Z,8.17
2022-08-31T10:55:40.558Z,7.30
2022-08-31T10:58:07.197Z,8.80
2022-08-31T11:01:03.574Z,7.40
2022-08-31T11:04:14.772Z,7.00
2022-08-31T11:06:59.007Z,7.93
2022-08-31T11:10:02.399Z,7.60
2022-08-31T11:12:40.874Z,7.00
2022-08-31T11:15:39.962Z,7.10
2022-08-31T11:18:36.194Z,7.50
2022-08-31T11:21:09.027Z,7.17
2022-08-31T11:24:13.026Z,7.37
2022-08-31T11:27:01.155Z,6.23
2022-08-31T11:29:34.409Z,6.57
2022-08-31T11:32:11.540Z,7.03
2022-08-31T11:34:50.801Z,6.80
2022-08-31T11:37:53.135Z,5.97
2022-08-31T11:40:41.531Z,7.97
2022-08-31T11:43:14.421Z,5.80
2022-08-31T11:45:42.916Z,6.40
2022-08-31T11:48:51.074Z,6.83
2022-08-31T11:51:40.743Z,7.40
2022-08-31T11:54:15.947Z,5.60
2022-08-31T11:56:47.350Z,6.13
2022-08-31T11:59:23.946Z,6.00
2022-08-31T12:01:51.992Z,5.80
2022-08-31T12:04:41.888Z,5.63
2022-08-31T12:07:14.031Z,5.80
2022-08-31T12:09:55.662Z,5.53
2022-08-31T12:12:46.081Z,5.40
2022-08-31T12:15:31.753Z,5.03
2022-08-31T12:18:18.579Z,5.13
2022-08-31T12:21:27.867Z,4.87
2022-08-31T12:24:03.617Z,4.30
2022-08-31T12:27:01.582Z,5.10
2022-08-31T12:29:37.614Z,4.20
2022-08-31T12:32:10.903Z,4.40
2022-08-31T12:34:45.726Z,4.00
2022-08-31T12:37:24.142Z,4.87
2022-08-31T12:40:11.135Z,4.53
2022-08-31T12:42:50.247Z,4.50
2022-08-31T12:45:17.540Z,4.47
2022-08-31T12:48:11.182Z,4.63
2022-08-31T12:50:47.869Z,4.57
2022-08-31T12:53:51.171Z,4.27
2022-08-31T12:56:49.983Z,3.77
2022-08-31T12:59:59.505Z,3.87
2022-08-31T13:02:23.479Z,4.00
2022-08-31T13:04:50.851Z,5.33
2022-08-31T13:07:23.996Z,4.40
2022-08-31T13:10:12.960Z,4.40
2022-08-31T13:12:40.220Z,4.27
2022-08-31T13:15:20.904Z,4.33
2022-08-31T13:17:47.673Z,5.37
2022-08-31T13:20:18.955Z,4.30
2022-08-31T13:22:48.841Z,4.43
2022-08-31T13:25:35.761Z,4.73
2022-08-31T13:28:12.467Z,4.50
2022-08-31T13:30:41.477Z,4.90
2022-08-31T13:33:31.132Z,5.20
2022-08-31T13:36:33.856Z,4.80
2022-08-31T13:39:12.160Z,4.77
2022-08-31T13:41:56.187Z,4.80
2022-08-31T13:44:27.794Z,4.77
2022-08-31T13:47:02.791Z,4.50
2022-08-31T13:49:38.358Z,4.60
2022-08-31T13:52:14.039Z,5.17
2022-08-31T13:54:40.925Z,5.10
2022-08-31T13:57:25.767Z,6.30
2022-08-31T13:59:52.969Z,4.87
2022-08-31T14:02:20.220Z,4.40
2022-08-31T14:05:00.445Z,4.30
2022-08-31T14:07:38.972Z,4.40
2022-08-31T14:10:15.034Z,5.40
2022-08-31T14:12:52.583Z,4.30
2022-08-31T14:15:19.230Z,4.27
2022-08-31T14:21:23.474Z,4.30
2022-08-31T14:24:02.536Z,4.53
2022-08-31T14:26:35.093Z,4.30
2022-08-31T14:29:09.590Z,3.77
2022-08-31T14:31:37.682Z,4.40
2022-08-31T14:34:20.020Z,4.90
2022-08-31T14:36:52.924Z,4.70
2022-08-31T14:39:31.322Z,4.23
2022-08-31T14:42:18.551Z,4.70
2022-08-31T14:45:21.079Z,4.40
2022-08-31T14:47:52.221Z,4.43
2022-08-31T14:50:23.430Z,4.77
2022-08-31T14:52:55.281Z,4.40
2022-08-31T14:55:25.005Z,4.80
2022-08-31T14:57:58.215Z,4.63
2022-08-31T15:00:25.849Z,4.93
2022-08-31T15:02:53.736Z,4.40
2022-08-31T15:05:24.461Z,4.67
2022-08-31T15:07:52.959Z,4.50
2022-08-31T15:10:21.869Z,5.33
2022-08-31T15:12:48.788Z,5.00
2022-08-31T15:15:20.510Z,4.50
2022-08-31T15:17:50.477Z,4.50
2022-08-31T15:20:22.860Z,4.50
2022-08-31T15:22:50.278Z,4.67
2022-08-31T15:25:18.738Z,4.63
2022-08-31T15:27:46.551Z,4.67
2022-08-31T15:30:18.868Z,5.13
2022-08-31T15:32:48.007Z,5.03
2022-08-31T15:35:18.398Z,5.30
2022-08-31T15:37:52.089Z,4.47
2022-08-31T15:40:19.110Z,5.00
2022-08-31T15:42:46.103Z,4.27
2022-08-31T15:45:13.056Z,4.80
2022-08-31T15:47:59.271Z,4.90
2022-08-31T15:50:31.854Z,5.07
2022-08-31T15:53:08.698Z,4.57
2022-08-31T15:55:40.747Z,4.30
2022-08-31T15:58:09.522Z,4.60
2022-08-31T16:00:37.634Z,4.67
2022-08-31T16:03:06.220Z,4.10
2022-08-31T16:05:38.913Z,4.40
2022-08-31T16:08:11.344Z,5.00
2022-08-31T16:10:43.918Z,4.13
2022-08-31T16:13:11.103Z,4.30
2022-08-31T16:15:38.795Z,4.20
2022-08-31T16:18:06.800Z,4.20
2022-08-31T16:20:34.763Z,4.30
2022-08-31T16:23:01.717Z,4.40
2022-08-31T16:25:30.475Z,4.40
2022-08-31T16:28:15.228Z,4.30
2022-08-31T16:30:43.839Z,4.37
2022-08-31T16:33:12.004Z,4.23
2022-08-31T16:35:39.235Z,4.30
2022-08-31T16:38:07.200Z,4.00
2022-08-31T16:40:35.590Z,4.70
2022-08-31T16:43:03.051Z,4.47
2022-08-31T16:45:30.055Z,4.60
2022-08-31T16:48:16.823Z,4.77
2022-08-31T16:50:47.717Z,4.90
2022-08-31T16:53:17.978Z,5.50
2022-08-31T16:55:47.469Z,4.53
2022-08-31T16:58:21.592Z,5.50
2022-08-31T17:01:12.680Z,4.80
2022-08-31T17:04:00.086Z,5.07
2022-08-31T17:06:29.364Z,5.60
2022-08-31T17:09:01.844Z,5.07
2022-08-31T17:11:32.199Z,5.40
2022-08-31T17:14:01.421Z,5.57
2022-08-31T17:16:39.025Z,6.17
2022-08-31T17:19:11.312Z,6.00
2022-08-31T17:21:50.004Z,5.40
2022-08-31T17:24:31.174Z,5.77
2022-08-31T17:27:01.238Z,5.40
2022-08-31T17:29:32.175Z,6.00
2022-08-31T17:32:03.733Z,5.53
2022-08-31T17:34:33.041Z,5.87
2022-08-31T17:37:03.126Z,5.50
2022-08-31T17:39:29.834Z,5.80
2022-08-31T17:41:57.857Z,5.87
2022-08-31T17:44:30.820Z,5.70
2022-08-31T17:47:00.735Z,5.63
2022-08-31T17:49:29.722Z,5.30
2022-08-31T17:52:08.476Z,5.83
2022-08-31T17:54:39.729Z,5.97
2022-08-31T17:57:09.070Z,5.07
2022-08-31T17:59:38.745Z,5.40
2022-08-31T18:02:12.958Z,5.60
2022-08-31T18:04:40.726Z,5.77
2022-08-31T18:07:09.382Z,5.60
2022-08-31T18:09:41.637Z,5.90
2022-08-31T18:12:08.921Z,6.07
2022-08-31T18:14:38.099Z,6.10
2022-08-31T18:17:08.280Z,6.30
2022-08-31T18:19:35.116Z,6.27
2022-08-31T18:22:03.142Z,6.83
2022-08-31T18:24:34.094Z,6.70
2022-08-31T18:27:03.984Z,6.03
2022-08-31T18:29:33.998Z,6.17
2022-08-31T18:32:05.292Z,6.43
2022-08-31T18:34:34.924Z,5.70
2022-08-31T18:37:02.338Z,6.00
2022-08-31T18:39:51.016Z,6.20
2022-08-31T18:42:38.258Z,6.13
2022-08-31T18:45:20.943Z,6.57
2022-08-31T18:48:23.402Z,6.13
2022-08-31T18:50:45.021Z,6.80
2022-08-31T18:53:15.357Z,6.10
2022-08-31T18:55:53.558Z,6.37
2022-08-31T18:58:20.651Z,7.70
2022-08-31T19:00:57.414Z,7.40
2022-08-31T19:03:27.003Z,6.20
2022-08-31T19:05:54.354Z,6.47
2022-08-31T19:08:21.138Z,6.67
2022-08-31T19:10:49.087Z,7.20
2022-08-31T19:13:16.213Z,6.90
2022-08-31T19:15:43.774Z,6.67
2022-08-31T19:18:10.551Z,6.77
2022-08-31T19:20:37.670Z,6.53
2022-08-31T19:23:04.772Z,7.57
2022-08-31T19:25:36.852Z,6.67
2022-08-31T19:28:07.746Z,7.40
2022-08-31T19:30:35.364Z,7.10
2022-08-31T19:33:06.450Z,6.47
2022-08-31T19:35:34.576Z,6.60
2022-08-31T19:38:01.311Z,6.80
2022-08-31T19:40:38.141Z,7.57
2022-08-31T19:45:54.056Z,7.70
2022-08-31T19:48:24.225Z,7.23
2022-08-31T19:50:52.314Z,6.73
2022-08-31T19:53:21.216Z,6.50
2022-08-31T19:55:50.859Z,7.00
2022-08-31T19:58:19.897Z,6.50
2022-08-31T20:00:48.433Z,6.70
2022-08-31T20:03:16.095Z,6.90
2022-08-31T20:05:43.484Z,6.78
2022-08-31T20:08:12.229Z,6.87
2022-08-31T20:10:43.929Z,6.63
2022-08-31T20:13:12.503Z,6.27
2022-08-31T20:15:45.602Z,6.70
2022-08-31T20:18:12.915Z,6.20
2022-08-31T20:20:45.183Z,6.93
2022-08-31T20:23:16.656Z,6.07
2022-08-31T20:25:45.949Z,7.00
2022-08-31T20:28:13.342Z,6.53
2022-08-31T20:30:43.176Z,6.83
2022-08-31T20:33:11.821Z,6.60
2022-08-31T20:35:47.236Z,6.63
2022-08-31T20:38:15.874Z,6.13
2022-08-31T20:40:44.478Z,6.20
2022-08-31T20:43:12.770Z,6.68
2022-08-31T20:45:41.527Z,7.00
2022-08-31T20:48:28.190Z,6.35
2022-08-31T20:50:55.963Z,6.72
2022-08-31T20:53:42.454Z,6.53
2022-08-31T20:56:17.185Z,6.03
2022-08-31T20:58:45.811Z,6.10
2022-08-31T21:01:13.897Z,5.85
2022-08-31T21:03:41.247Z,5.57
2022-08-31T21:06:11.265Z,6.30
2022-08-31T21:08:39.287Z,5.75
2022-08-31T21:11:14.775Z,5.97
2022-08-31T21:13:42.786Z,6.07
2022-08-31T21:16:10.151Z,5.82
2022-08-31T21:18:37.886Z,5.70
2022-08-31T21:21:08.203Z,5.60
2022-08-31T21:23:36.695Z,5.75
2022-08-31T21:26:05.000Z,5.60
2022-08-31T21:28:31.772Z,5.60
2022-08-31T21:31:15.426Z,5.80
2022-08-31T21:33:44.306Z,5.60
2022-08-31T21:36:15.157Z,5.35
2022-08-31T21:38:43.588Z,5.93
2022-08-31T21:41:12.279Z,5.55
2022-08-31T21:43:39.819Z,5.87
2022-08-31T21:46:12.137Z,5.57
2022-08-31T21:48:41.260Z,5.90
2022-08-31T21:51:26.919Z,5.80
2022-08-31T21:53:56.226Z,5.90
2022-08-31T21:56:24.870Z,6.07
2022-08-31T21:58:51.774Z,6.00
2022-08-31T22:01:19.444Z,6.70
2022-08-31T22:03:47.932Z,5.63
2022-08-31T22:06:27.003Z,5.83
2022-08-31T22:08:57.473Z,5.87
2022-08-31T22:11:24.458Z,5.40
2022-08-31T22:13:53.991Z,5.60
2022-08-31T22:16:20.833Z,6.00
2022-08-31T22:19:06.739Z,6.05
2022-08-31T22:21:35.579Z,6.10
2022-08-31T22:24:07.369Z,5.55
2022-08-31T22:26:37.153Z,5.20
2022-08-31T22:29:09.531Z,5.28
2022-08-31T22:31:38.192Z,5.50
2022-08-31T22:34:07.457Z,6.03
2022-08-31T22:36:34.690Z,5.55
2022-08-31T22:39:07.627Z,5.97
2022-08-31T22:41:37.348Z,6.15
2022-08-31T22:44:06.491Z,5.30
2022-08-31T22:46:33.846Z,5.95
2022-08-31T22:49:00.872Z,5.70
2022-08-31T22:51:27.707Z,5.47
2022-08-31T22:53:54.418Z,5.27
2022-08-31T22:56:26.969Z,5.20
2022-08-31T22:58:55.200Z,5.70
2022-08-31T23:01:24.634Z,5.47
2022-08-31T23:03:52.984Z,5.65
2022-08-31T23:06:23.262Z,5.35
2022-08-31T23:08:52.017Z,5.50
2022-08-31T23:11:21.272Z,5.10
2022-08-31T23:13:55.430Z,5.93
2022-08-31T23:16:24.906Z,5.70
2022-08-31T23:18:53.702Z,5.82
2022-08-31T23:21:20.954Z,6.05
2022-08-31T23:23:47.850Z,5.95
2022-08-31T23:26:14.502Z,5.80
2022-08-31T23:28:41.219Z,5.88
2022-08-31T23:31:08.030Z,5.97
2022-08-31T23:33:36.044Z,5.93
2022-08-31T23:36:04.126Z,5.60
2022-08-31T23:38:32.322Z,5.80
2022-08-31T23:40:59.095Z,6.05
2022-08-31T23:43:26.753Z,6.37
2022-08-31T23:45:59.526Z,5.60
2022-08-31T23:48:26.294Z,6.53
2022-08-31T23:50:55.355Z,5.68
2022-08-31T23:53:23.467Z,6.47
2022-08-31T23:55:50.192Z,6.15
2022-08-31T23:58:17.883Z,6.20
